Time;durP1;ratioP1;P1;durP2;ratioP2;P2;SDS_P1;SDS_P2;PMS_P1;PMS_P2;Temp;Humidity;BMP_temperature;BMP_pressure;BME280_temperature;BME280_humidity;BME280_pressure;Samples;Min_cycle;Max_cycle;Signal;HPM_P1;HPM_P2
2021/06/24 00:01:59;;;;;;;29.40;8.60;;;;;;;;;;5008970;28;20026;-37
2021/06/24 00:04:27;;;;;;;26.23;8.75;;;;;;;;;;5009641;28;20088;-39
2021/06/24 00:06:54;;;;;;;19.52;8.15;;;;;;;;;;5009231;28;20018;-37
2021/06/24 00:09:21;;;;;;;19.25;8.43;;;;;;;;;;5010490;28;20355;-36
2021/06/24 00:11:48;;;;;;;25.30;8.07;;;;;;;;;;5008086;28;20238;-35
2021/06/24 00:14:15;;;;;;;23.83;7.85;;;;;;;;;;4994154;28;20026;-37
2021/06/24 00:16:42;;;;;;;19.77;8.82;;;;;;;;;;5008177;28;20022;-35
2021/06/24 00:19:09;;;;;;;21.65;8.70;;;;;;;;;;5009509;28;20018;-36
2021/06/24 00:21:36;;;;;;;20.60;8.80;;;;;;;;;;5010901;28;20033;-35
2021/06/24 00:24:03;;;;;;;21.52;8.75;;;;;;;;;;5006204;28;20022;-37
2021/06/24 00:26:30;;;;;;;22.23;8.95;;;;;;;;;;5010245;28;20038;-38
2021/06/24 00:28:57;;;;;;;27.13;8.63;;;;;;;;;;5007806;28;20038;-38
2021/06/24 00:31:24;;;;;;;23.63;9.13;;;;;;;;;;5009956;28;20021;-36
2021/06/24 00:33:51;;;;;;;22.23;8.65;;;;;;;;;;5008936;28;20029;-36
2021/06/24 00:36:18;;;;;;;21.45;9.10;;;;;;;;;;5007138;28;20025;-37
2021/06/24 00:38:45;;;;;;;28.42;9.43;;;;;;;;;;5009643;28;20022;-37
2021/06/24 00:41:13;;;;;;;19.83;8.98;;;;;;;;;;5008219;28;20017;-38
2021/06/24 00:43:40;;;;;;;23.00;8.77;;;;;;;;;;5009773;28;20538;-36
2021/06/24 00:46:07;;;;;;;20.35;8.68;;;;;;;;;;5007447;28;20079;-37
2021/06/24 00:48:34;;;;;;;19.25;9.45;;;;;;;;;;5008016;28;20021;-37
2021/06/24 00:51:01;;;;;;;20.73;8.50;;;;;;;;;;5007706;28;20029;-36
2021/06/24 00:53:28;;;;;;;30.85;9.63;;;;;;;;;;5005433;28;20025;-37
2021/06/24 00:55:56;;;;;;;23.80;9.13;;;;;;;;;;5009887;28;20437;-35
2021/06/24 00:58:27;;;;;;;29.05;9.38;;;;;;;;;;5009342;28;20076;-37
2021/06/24 01:00:58;;;;;;;26.67;9.55;;;;;;;;;;5009695;28;20519;-34
2021/06/24 01:03:26;;;;;;;29.50;9.18;;;;;;;;;;5010231;28;20021;-36
2021/06/24 01:05:53;;;;;;;26.92;9.80;;;;;;;;;;5010133;28;20377;-36
2021/06/24 01:08:27;;;;;;;23.38;9.38;;;;;;;;;;5010223;28;20367;-39
2021/06/24 01:10:54;;;;;;;24.40;9.98;;;;;;;;;;5008753;28;20084;-40
2021/06/24 01:13:21;;;;;;;38.25;10.02;;;;;;;;;;5009196;28;20022;-47
2021/06/24 01:15:48;;;;;;;19.25;9.23;;;;;;;;;;5010406;28;20405;-36
2021/06/24 01:18:16;;;;;;;26.48;9.43;;;;;;;;;;5010357;28;20014;-43
2021/06/24 01:20:43;;;;;;;22.27;8.98;;;;;;;;;;5006592;28;20026;-38
2021/06/24 01:23:10;;;;;;;24.08;9.32;;;;;;;;;;5007229;28;20033;-37
2021/06/24 01:25:37;;;;;;;25.55;10.30;;;;;;;;;;5009010;28;20033;-40
2021/06/24 01:28:08;;;;;;;22.15;9.25;;;;;;;;;;5009344;28;20557;-40
2021/06/24 01:30:39;;;;;;;24.23;9.70;;;;;;;;;;5006237;28;20747;-37
2021/06/24 01:33:07;;;;;;;25.00;9.35;;;;;;;;;;5007879;28;20025;-38
2021/06/24 01:35:34;;;;;;;30.20;9.80;;;;;;;;;;5006018;28;20033;-35
2021/06/24 01:38:03;;;;;;;19.33;8.82;;;;;;;;;;5003108;28;20018;-41
2021/06/24 01:40:30;;;;;;;25.50;9.57;;;;;;;;;;4998421;28;20022;-40
2021/06/24 01:42:57;;;;;;;24.40;9.30;;;;;;;;;;4995348;28;20018;-42
2021/06/24 01:45:24;;;;;;;21.60;9.05;;;;;;;;;;4997593;28;20018;-41
2021/06/24 01:47:52;;;;;;;19.50;8.73;;;;;;;;;;5001246;28;20030;-40
2021/06/24 01:50:19;;;;;;;26.23;9.40;;;;;;;;;;4993108;28;20481;-41
2021/06/24 01:52:47;;;;;;;18.67;8.70;;;;;;;;;;4997146;28;20065;-38
2021/06/24 01:55:14;;;;;;;15.68;7.68;;;;;;;;;;4993281;28;20080;-42
2021/06/24 01:57:42;;;;;;;22.45;8.48;;;;;;;;;;5000147;28;20026;-42
2021/06/24 02:00:13;;;;;;;19.08;8.40;;;;;;;;;;5006157;28;20026;-40
2021/06/24 02:02:42;;;;;;;19.90;7.90;;;;;;;;;;5007651;28;20026;-40
2021/06/24 02:05:10;;;;;;;18.58;8.57;;;;;;;;;;5009707;28;20526;-43
2021/06/24 02:07:42;;;;;;;18.30;7.97;;;;;;;;;;5010644;28;20029;-39
2021/06/24 02:10:08;;;;;;;;;;;;;;;;;;4993516;28;20093;-41
2021/06/24 02:12:36;;;;;;;18.80;8.25;;;;;;;;;;4999539;28;19910;-43
2021/06/24 02:15:05;;;;;;;14.00;7.57;;;;;;;;;;5007518;28;20108;-40
2021/06/24 02:17:32;;;;;;;18.10;7.72;;;;;;;;;;5004350;28;20117;-39
2021/06/24 02:19:59;;;;;;;18.33;7.43;;;;;;;;;;5006927;28;20420;-40
2021/06/24 02:22:26;;;;;;;18.35;8.25;;;;;;;;;;5005732;28;20018;-42
2021/06/24 02:24:53;;;;;;;19.23;7.28;;;;;;;;;;5008871;28;20465;-45
2021/06/24 02:27:20;;;;;;;14.32;6.55;;;;;;;;;;4991516;28;20042;-40
2021/06/24 02:29:47;;;;;;;14.93;7.00;;;;;;;;;;5009700;28;20033;-40
2021/06/24 02:32:14;;;;;;;14.75;7.15;;;;;;;;;;5006441;28;20014;-41
2021/06/24 02:34:43;;;;;;;17.33;7.15;;;;;;;;;;5001742;28;20060;-38
2021/06/24 02:37:10;;;;;;;14.38;7.00;;;;;;;;;;5005498;28;20421;-41
2021/06/24 02:39:37;;;;;;;15.45;7.40;;;;;;;;;;5003721;28;20092;-38
2021/06/24 02:42:04;;;;;;;18.20;7.85;;;;;;;;;;5007519;28;20048;-42
2021/06/24 02:44:32;;;;;;;14.90;6.60;;;;;;;;;;5007535;28;20022;-43
2021/06/24 02:46:59;;;;;;;14.07;6.38;;;;;;;;;;5004708;28;20026;-37
2021/06/24 02:49:26;;;;;;;14.82;7.25;;;;;;;;;;5003974;28;20030;-38
2021/06/24 02:51:53;;;;;;;16.42;6.47;;;;;;;;;;5007397;28;20040;-38
2021/06/24 02:54:20;;;;;;;13.45;6.70;;;;;;;;;;5005526;28;20030;-37
2021/06/24 02:56:47;;;;;;;14.15;6.78;;;;;;;;;;5006363;28;20045;-39
2021/06/24 02:59:14;;;;;;;17.05;6.65;;;;;;;;;;5006462;28;20014;-37
2021/06/24 03:01:41;;;;;;;17.20;6.82;;;;;;;;;;5006583;28;20034;-38
2021/06/24 03:04:09;;;;;;;14.02;5.90;;;;;;;;;;5008701;28;20021;-39
2021/06/24 03:06:36;;;;;;;15.05;6.22;;;;;;;;;;5007239;28;20129;-38
2021/06/24 03:09:05;;;;;;;19.65;6.63;;;;;;;;;;5002907;28;20018;-38
2021/06/24 03:11:33;;;;;;;13.13;5.47;;;;;;;;;;5000312;28;20018;-38
2021/06/24 03:14:00;;;;;;;14.63;5.93;;;;;;;;;;5006899;28;20033;-39
2021/06/24 03:16:27;;;;;;;14.25;5.80;;;;;;;;;;5013105;28;20038;-37
2021/06/24 03:18:54;;;;;;;11.73;5.22;;;;;;;;;;5012869;28;20014;-38
2021/06/24 03:21:21;;;;;;;18.42;5.82;;;;;;;;;;5011315;28;20026;-38
2021/06/24 03:23:48;;;;;;;12.48;5.57;;;;;;;;;;5011423;28;20548;-38
2021/06/24 03:26:15;;;;;;;10.85;5.40;;;;;;;;;;4995635;28;20061;-40
2021/06/24 03:28:42;;;;;;;18.02;5.40;;;;;;;;;;5011455;28;20053;-37
2021/06/24 03:31:09;;;;;;;12.73;5.25;;;;;;;;;;4992814;28;20382;-37
2021/06/24 03:33:36;;;;;;;12.80;5.60;;;;;;;;;;4991169;28;20029;-37
2021/06/24 03:36:04;;;;;;;14.18;5.45;;;;;;;;;;4990506;28;20378;-39
2021/06/24 03:38:31;;;;;;;12.43;5.05;;;;;;;;;;4993354;28;20027;-39
2021/06/24 03:40:58;;;;;;;12.55;4.80;;;;;;;;;;4992191;28;20508;-38
2021/06/24 03:43:25;;;;;;;15.45;5.75;;;;;;;;;;4992979;28;20021;-39
2021/06/24 03:45:52;;;;;;;10.85;4.45;;;;;;;;;;4990337;28;20513;-37
2021/06/24 03:48:19;;;;;;;14.85;5.00;;;;;;;;;;5001229;28;20080;-38
2021/06/24 03:50:47;;;;;;;8.90;4.85;;;;;;;;;;5010858;28;20029;-38
2021/06/24 03:53:14;;;;;;;11.18;4.57;;;;;;;;;;5009837;28;20535;-37
2021/06/24 03:55:43;;;;;;;10.50;4.50;;;;;;;;;;5011050;28;20398;-38
2021/06/24 03:58:10;;;;;;;11.13;4.70;;;;;;;;;;5009169;28;20466;-37
2021/06/24 04:00:40;;;;;;;16.55;4.35;;;;;;;;;;5008822;28;20033;-37
2021/06/24 04:03:07;;;;;;;10.63;4.15;;;;;;;;;;5004334;28;20018;-37
2021/06/24 04:05:34;;;;;;;11.70;4.15;;;;;;;;;;5012315;28;20099;-37
2021/06/24 04:08:02;;;;;;;12.82;5.30;;;;;;;;;;5011824;28;20519;-38
2021/06/24 04:10:30;;;;;;;12.60;4.18;;;;;;;;;;5010694;28;20034;-36
2021/06/24 04:12:57;;;;;;;13.27;4.05;;;;;;;;;;5012550;28;20389;-36
2021/06/24 04:15:25;;;;;;;9.30;4.63;;;;;;;;;;5013425;28;20485;-37
2021/06/24 04:17:52;;;;;;;11.27;4.35;;;;;;;;;;5012981;28;20096;-37
2021/06/24 04:20:20;;;;;;;10.60;4.53;;;;;;;;;;5013233;28;20114;-38
2021/06/24 04:22:47;;;;;;;8.45;4.30;;;;;;;;;;5013273;28;20381;-37
2021/06/24 04:25:16;;;;;;;9.50;3.92;;;;;;;;;;5012915;28;20033;-37
2021/06/24 04:27:43;;;;;;;9.15;3.95;;;;;;;;;;5013311;28;20078;-37
2021/06/24 04:30:11;;;;;;;8.63;4.00;;;;;;;;;;5013049;28;20510;-36
2021/06/24 04:32:38;;;;;;;8.27;3.67;;;;;;;;;;5013601;28;20073;-37
2021/06/24 04:35:06;;;;;;;7.28;3.90;;;;;;;;;;5012951;28;20108;-37
2021/06/24 04:37:33;;;;;;;8.60;3.75;;;;;;;;;;5012862;28;20026;-38
2021/06/24 04:40:00;;;;;;;11.35;4.00;;;;;;;;;;5012182;28;20101;-37
2021/06/24 04:42:28;;;;;;;8.57;3.67;;;;;;;;;;5013316;28;20085;-37
2021/06/24 04:44:55;;;;;;;11.55;3.97;;;;;;;;;;5012561;28;20407;-37
2021/06/24 04:47:22;;;;;;;14.85;4.45;;;;;;;;;;5013142;28;20025;-36
2021/06/24 04:49:49;;;;;;;13.18;4.15;;;;;;;;;;4994298;28;20029;-36
2021/06/24 04:52:17;;;;;;;11.82;4.38;;;;;;;;;;5011929;28;20018;-41
2021/06/24 04:54:44;;;;;;;14.18;4.60;;;;;;;;;;5012705;28;20025;-37
2021/06/24 04:57:12;;;;;;;10.00;3.85;;;;;;;;;;5009562;28;20040;-39
2021/06/24 04:59:39;;;;;;;15.80;4.25;;;;;;;;;;5013166;28;20026;-36
2021/06/24 05:02:06;;;;;;;11.32;4.20;;;;;;;;;;5012246;28;20513;-37
2021/06/24 05:04:33;;;;;;;10.57;3.97;;;;;;;;;;5012722;28;20105;-37
2021/06/24 05:07:03;;;;;;;11.35;4.07;;;;;;;;;;5011673;28;20033;-36
2021/06/24 05:09:33;;;;;;;14.32;4.28;;;;;;;;;;5012768;28;20018;-37
2021/06/24 05:12:00;;;;;;;14.23;3.85;;;;;;;;;;5012210;28;20465;-36
2021/06/24 05:14:27;;;;;;;9.82;4.15;;;;;;;;;;5012651;28;20017;-37
2021/06/24 05:16:54;;;;;;;10.88;3.67;;;;;;;;;;5012630;28;20026;-38
2021/06/24 05:19:21;;;;;;;7.28;3.53;;;;;;;;;;5012044;28;20478;-36
2021/06/24 05:21:48;;;;;;;13.68;3.85;;;;;;;;;;5012679;28;20037;-37
2021/06/24 05:24:15;;;;;;;10.70;4.00;;;;;;;;;;5011903;28;20056;-37
2021/06/24 05:26:42;;;;;;;6.43;3.47;;;;;;;;;;5012337;28;20045;-37
2021/06/24 05:29:09;;;;;;;9.57;3.80;;;;;;;;;;5012136;28;20022;-37
2021/06/24 05:31:37;;;;;;;9.07;3.22;;;;;;;;;;5012857;28;20087;-36
2021/06/24 05:34:04;;;;;;;11.00;3.33;;;;;;;;;;5011816;28;20049;-36
2021/06/24 05:36:33;;;;;;;6.30;3.10;;;;;;;;;;5011870;28;20030;-36
2021/06/24 05:39:01;;;;;;;9.60;3.45;;;;;;;;;;5011513;28;20466;-36
2021/06/24 05:41:28;;;;;;;8.48;3.28;;;;;;;;;;5012543;28;20032;-37
2021/06/24 05:43:55;;;;;;;9.65;3.20;;;;;;;;;;5011920;28;20125;-36
2021/06/24 05:46:22;;;;;;;6.93;3.33;;;;;;;;;;5012432;28;20053;-36
2021/06/24 05:48:51;;;;;;;7.55;3.22;;;;;;;;;;5012199;28;20022;-36
2021/06/24 05:51:22;;;;;;;7.30;3.22;;;;;;;;;;5011596;28;20428;-37
2021/06/24 05:53:49;;;;;;;10.70;3.35;;;;;;;;;;5010872;28;20046;-35
2021/06/24 05:56:16;;;;;;;8.57;3.35;;;;;;;;;;5011645;28;20750;-37
2021/06/24 05:58:43;;;;;;;6.25;3.28;;;;;;;;;;5012157;28;20034;-36
2021/06/24 06:01:10;;;;;;;8.70;3.50;;;;;;;;;;5012187;28;21104;-39
2021/06/24 06:03:37;;;;;;;6.35;2.60;;;;;;;;;;5012493;28;20054;-37
2021/06/24 06:06:05;;;;;;;8.25;3.13;;;;;;;;;;5012418;28;20026;-38
2021/06/24 06:08:32;;;;;;;5.88;3.05;;;;;;;;;;4994719;28;20033;-37
2021/06/24 06:10:59;;;;;;;5.43;2.60;;;;;;;;;;5012515;28;20041;-37
2021/06/24 06:13:26;;;;;;;7.45;3.08;;;;;;;;;;5012425;28;20045;-37
2021/06/24 06:15:53;;;;;;;9.38;3.40;;;;;;;;;;5012241;28;20520;-36
2021/06/24 06:18:24;;;;;;;6.35;2.90;;;;;;;;;;5012395;28;20473;-37
2021/06/24 06:20:51;;;;;;;8.27;2.78;;;;;;;;;;5012381;28;20026;-37
2021/06/24 06:23:19;;;;;;;5.82;2.67;;;;;;;;;;5012114;28;20531;-38
2021/06/24 06:25:47;;;;;;;7.13;2.67;;;;;;;;;;5012276;28;20018;-37
2021/06/24 06:28:14;;;;;;;6.28;2.70;;;;;;;;;;5012217;28;20528;-37
2021/06/24 06:30:42;;;;;;;6.63;2.65;;;;;;;;;;5012081;28;20022;-37
2021/06/24 06:33:09;;;;;;;4.72;2.53;;;;;;;;;;5012103;28;20382;-37
2021/06/24 06:35:37;;;;;;;5.35;2.40;;;;;;;;;;5012045;28;20061;-37
2021/06/24 06:38:04;;;;;;;4.50;2.42;;;;;;;;;;5012091;28;20022;-37
2021/06/24 06:40:32;;;;;;;4.68;2.60;;;;;;;;;;5011885;28;20022;-38
2021/06/24 06:42:59;;;;;;;5.57;2.70;;;;;;;;;;5012164;28;20544;-37
2021/06/24 06:45:31;;;;;;;4.22;2.40;;;;;;;;;;5012097;28;20406;-37
2021/06/24 06:47:58;;;;;;;4.75;2.40;;;;;;;;;;5012003;28;20018;-37
2021/06/24 06:50:25;;;;;;;3.70;2.25;;;;;;;;;;5009118;28;20029;-35
2021/06/24 06:52:52;;;;;;;7.28;2.35;;;;;;;;;;5014697;28;20018;-37
2021/06/24 06:55:19;;;;;;;3.95;2.00;;;;;;;;;;5014713;28;20038;-36
2021/06/24 06:57:46;;;;;;;5.72;2.80;;;;;;;;;;5015290;28;20540;-36
2021/06/24 07:00:14;;;;;;;4.22;2.30;;;;;;;;;;5014621;28;20108;-34
2021/06/24 07:02:40;;;;;;;3.72;2.35;;;;;;;;;;5015069;28;20033;-37
2021/06/24 07:05:08;;;;;;;6.00;2.58;;;;;;;;;;5014959;28;20030;-34
2021/06/24 07:07:35;;;;;;;5.68;2.30;;;;;;;;;;5014263;28;20050;-37
2021/06/24 07:10:03;;;;;;;4.03;2.05;;;;;;;;;;4997288;28;20565;-36
2021/06/24 07:12:31;;;;;;;4.93;2.60;;;;;;;;;;5014464;28;20018;-37
2021/06/24 07:14:58;;;;;;;4.60;2.63;;;;;;;;;;5014968;28;20030;-37
2021/06/24 07:17:25;;;;;;;5.80;2.25;;;;;;;;;;5014325;28;20026;-36
2021/06/24 07:19:52;;;;;;;7.53;2.30;;;;;;;;;;5014650;28;20486;-36
2021/06/24 07:22:19;;;;;;;4.05;2.13;;;;;;;;;;5014675;28;20041;-37
2021/06/24 07:24:46;;;;;;;3.67;2.15;;;;;;;;;;5014324;28;20036;-38
2021/06/24 07:27:13;;;;;;;4.97;2.50;;;;;;;;;;5014434;28;20054;-37
2021/06/24 07:29:40;;;;;;;3.33;2.28;;;;;;;;;;5014210;28;20064;-37
2021/06/24 07:32:08;;;;;;;3.58;2.10;;;;;;;;;;5014389;28;20018;-36
2021/06/24 07:34:35;;;;;;;5.47;2.28;;;;;;;;;;5013572;28;20026;-36
2021/06/24 07:37:02;;;;;;;3.75;2.50;;;;;;;;;;4997001;28;20456;-36
2021/06/24 07:39:30;;;;;;;4.50;1.90;;;;;;;;;;5014095;28;20057;-36
2021/06/24 07:41:57;;;;;;;4.32;2.08;;;;;;;;;;5014279;28;20033;-37
2021/06/24 07:44:24;;;;;;;5.28;2.40;;;;;;;;;;5014433;28;20029;-36
2021/06/24 07:46:51;;;;;;;6.32;2.00;;;;;;;;;;5013812;28;20057;-37
2021/06/24 07:49:18;;;;;;;3.92;2.22;;;;;;;;;;5013885;28;20029;-37
2021/06/24 07:51:45;;;;;;;4.38;2.00;;;;;;;;;;5014001;28;20022;-36
2021/06/24 07:54:12;;;;;;;3.92;1.90;;;;;;;;;;5014247;28;20057;-36
2021/06/24 07:56:39;;;;;;;3.08;1.92;;;;;;;;;;5013643;28;20087;-36
2021/06/24 07:59:06;;;;;;;3.72;1.92;;;;;;;;;;5014199;28;20026;-36
2021/06/24 08:01:33;;;;;;;5.47;1.95;;;;;;;;;;5013126;28;20080;-36
2021/06/24 08:04:03;;;;;;;3.47;1.75;;;;;;;;;;5014047;28;20064;-36
2021/06/24 08:06:30;;;;;;;3.10;1.83;;;;;;;;;;5013640;28;20076;-36
2021/06/24 08:08:57;;;;;;;3.28;1.80;;;;;;;;;;5013884;28;20097;-37
2021/06/24 08:11:25;;;;;;;3.47;2.10;;;;;;;;;;5013442;28;20030;-35
2021/06/24 08:13:51;;;;;;;3.55;1.77;;;;;;;;;;5013812;28;20050;-36
2021/06/24 08:16:18;;;;;;;2.83;2.00;;;;;;;;;;5013362;28;20030;-37
2021/06/24 08:18:45;;;;;;;2.92;1.73;;;;;;;;;;5013005;28;20075;-37
2021/06/24 08:21:13;;;;;;;2.88;1.80;;;;;;;;;;5013949;28;20018;-36
2021/06/24 08:23:40;;;;;;;2.65;1.77;;;;;;;;;;5013189;28;20049;-36
2021/06/24 08:26:07;;;;;;;5.25;2.15;;;;;;;;;;5013476;28;20026;-37
2021/06/24 08:28:34;;;;;;;2.40;1.88;;;;;;;;;;5012774;28;20513;-37
2021/06/24 08:31:01;;;;;;;3.55;1.88;;;;;;;;;;5013392;28;20034;-37
2021/06/24 08:33:29;;;;;;;3.00;1.90;;;;;;;;;;5013003;28;20029;-37
2021/06/24 08:35:56;;;;;;;3.38;1.85;;;;;;;;;;5013199;28;20049;-36
2021/06/24 08:38:23;;;;;;;4.68;2.10;;;;;;;;;;5012575;28;20026;-37
2021/06/24 08:40:50;;;;;;;2.58;1.70;;;;;;;;;;5013361;28;20026;-36
2021/06/24 08:43:17;;;;;;;3.67;1.92;;;;;;;;;;5012983;28;20477;-37
2021/06/24 08:45:44;;;;;;;3.83;2.13;;;;;;;;;;5013383;28;20029;-36
2021/06/24 08:48:16;;;;;;;3.00;1.80;;;;;;;;;;5013166;28;20128;-36
2021/06/24 08:50:49;;;;;;;2.92;1.77;;;;;;;;;;5012934;28;20428;-37
2021/06/24 08:53:18;;;;;;;3.78;1.88;;;;;;;;;;5013264;28;20026;-37
2021/06/24 08:55:52;;;;;;;2.05;1.60;;;;;;;;;;5012535;28;20038;-37
2021/06/24 08:58:21;;;;;;;2.72;1.75;;;;;;;;;;5012980;28;20054;-38
2021/06/24 09:00:48;;;;;;;2.88;1.73;;;;;;;;;;5012358;28;20026;-37
2021/06/24 09:03:16;;;;;;;4.30;1.58;;;;;;;;;;5012883;28;20022;-36
2021/06/24 09:05:51;;;;;;;3.00;1.90;;;;;;;;;;5012301;28;20092;-36
2021/06/24 09:08:37;;;;;;;3.97;2.00;;;;;;;;;;5012567;28;20377;-35
2021/06/24 09:11:24;;;;;;;4.50;1.88;;;;;;;;;;5011919;28;20036;-37
2021/06/24 09:14:12;;;;;;;2.28;1.67;;;;;;;;;;5011792;28;20041;-37
2021/06/24 09:16:41;;;;;;;2.95;1.48;;;;;;;;;;5012079;28;20045;-36
2021/06/24 09:19:15;;;;;;;4.20;1.98;;;;;;;;;;5012225;28;20033;-37
2021/06/24 09:21:44;;;;;;;3.45;1.88;;;;;;;;;;5012263;28;20474;-36
2021/06/24 09:24:40;;;;;;;4.47;1.55;;;;;;;;;;5012396;28;20026;-37
2021/06/24 09:27:19;;;;;;;4.72;1.65;;;;;;;;;;5003344;28;20516;-36
2021/06/24 09:29:50;;;;;;;2.30;1.60;;;;;;;;;;5012474;28;20093;-36
2021/06/24 09:32:32;;;;;;;2.17;1.52;;;;;;;;;;5011809;28;20033;-37
2021/06/24 09:35:02;;;;;;;;;;;;;;;;;;5012876;28;20026;-34
2021/06/24 09:37:30;;;;;;;3.25;1.50;;;;;;;;;;5011983;28;19905;-37
2021/06/24 09:39:57;;;;;;;3.53;1.63;;;;;;;;;;5012290;28;20037;-37
2021/06/24 09:42:24;;;;;;;2.38;1.70;;;;;;;;;;5011740;28;20465;-37
2021/06/24 09:44:51;;;;;;;3.58;1.80;;;;;;;;;;5012372;28;20477;-36
2021/06/24 09:47:20;;;;;;;3.92;2.10;;;;;;;;;;5011984;28;20037;-35
2021/06/24 09:49:57;;;;;;;2.28;1.48;;;;;;;;;;5011713;28;20026;-36
2021/06/24 09:52:24;;;;;;;2.65;1.52;;;;;;;;;;5012056;28;20037;-36
2021/06/24 09:55:01;;;;;;;2.67;1.60;;;;;;;;;;5011802;28;20482;-36
2021/06/24 09:57:28;;;;;;;2.40;1.50;;;;;;;;;;5012174;28;20038;-36
2021/06/24 09:59:55;;;;;;;3.75;1.50;;;;;;;;;;5011231;28;20101;-36
2021/06/24 10:02:22;;;;;;;2.30;1.63;;;;;;;;;;5012085;28;20029;-37
2021/06/24 10:04:49;;;;;;;3.10;1.75;;;;;;;;;;5011691;28;20483;-37
2021/06/24 10:07:17;;;;;;;3.15;1.60;;;;;;;;;;5011936;28;20022;-37
2021/06/24 10:09:45;;;;;;;2.28;1.50;;;;;;;;;;5011236;28;20018;-36
2021/06/24 10:12:14;;;;;;;2.80;1.50;;;;;;;;;;5012059;28;20034;-35
2021/06/24 10:14:41;;;;;;;1.95;1.60;;;;;;;;;;5011483;28;20363;-36
2021/06/24 10:17:08;;;;;;;1.95;1.20;;;;;;;;;;5011759;28;20076;-36
2021/06/24 10:19:36;;;;;;;2.25;1.50;;;;;;;;;;5011005;28;20367;-36
2021/06/24 10:22:05;;;;;;;2.22;1.42;;;;;;;;;;5011744;28;20383;-36
2021/06/24 10:24:37;;;;;;;3.25;1.80;;;;;;;;;;5013275;28;20022;-36
2021/06/24 10:27:09;;;;;;;3.45;1.80;;;;;;;;;;5015578;28;20049;-37
2021/06/24 10:29:54;;;;;;;3.50;1.50;;;;;;;;;;5015677;28;20018;-35
2021/06/24 10:32:25;;;;;;;2.80;1.40;;;;;;;;;;5015806;28;20026;-37
2021/06/24 10:34:52;;;;;;;2.83;1.75;;;;;;;;;;5015451;28;20532;-35
2021/06/24 10:37:22;;;;;;;2.80;1.52;;;;;;;;;;5015654;28;20083;-37
2021/06/24 10:39:50;;;;;;;1.98;1.15;;;;;;;;;;5015647;28;20022;-37
2021/06/24 10:42:17;;;;;;;2.78;1.27;;;;;;;;;;5014916;28;20030;-37
2021/06/24 10:44:44;;;;;;;2.10;1.42;;;;;;;;;;5015509;28;20030;-36
2021/06/24 10:47:12;;;;;;;3.33;1.48;;;;;;;;;;5015032;28;20021;-37
2021/06/24 10:49:39;;;;;;;2.20;1.23;;;;;;;;;;5015609;28;20112;-37
2021/06/24 10:52:27;;;;;;;4.07;1.50;;;;;;;;;;5014701;28;20014;-37
2021/06/24 10:54:55;;;;;;;1.50;1.15;;;;;;;;;;5015462;28;20524;-36
2021/06/24 10:57:31;;;;;;;2.08;1.38;;;;;;;;;;5014914;28;20041;-36
2021/06/24 11:00:18;;;;;;;2.15;1.45;;;;;;;;;;5015312;28;20026;-36
2021/06/24 11:02:49;;;;;;;2.42;1.20;;;;;;;;;;5007459;28;20221;-37
2021/06/24 11:05:19;;;;;;;3.22;1.30;;;;;;;;;;5015401;28;20030;-36
2021/06/24 11:07:46;;;;;;;1.50;1.05;;;;;;;;;;5014543;28;20125;-36
2021/06/24 11:10:20;;;;;;;2.00;1.30;;;;;;;;;;5014890;28;20026;-37
2021/06/24 11:12:50;;;;;;;2.10;1.35;;;;;;;;;;5014185;28;20026;-37
2021/06/24 11:15:52;;;;;;;2.47;1.15;;;;;;;;;;5014893;28;20041;-36
2021/06/24 11:18:34;;;;;;;2.30;1.27;;;;;;;;;;4972321;28;20027;-36
2021/06/24 11:21:02;;;;;;;2.28;1.25;;;;;;;;;;5007913;28;20065;-36
2021/06/24 11:23:30;;;;;;;2.05;1.20;;;;;;;;;;5013913;28;20038;-37
2021/06/24 11:26:07;;;;;;;1.52;1.10;;;;;;;;;;5014412;28;20105;-36
2021/06/24 11:28:55;;;;;;;3.30;1.50;;;;;;;;;;5014081;28;20050;-36
2021/06/24 11:31:46;;;;;;;2.70;1.42;;;;;;;;;;5014635;28;20025;-36
2021/06/24 11:36:48;;;;;;;3.25;1.45;;;;;;;;;;5013779;28;20135;-36
2021/06/24 11:39:25;;;;;;;2.20;1.30;;;;;;;;;;5014285;28;20033;-36
2021/06/24 11:41:56;;;;;;;1.48;1.27;;;;;;;;;;5014328;28;20034;-36
2021/06/24 11:44:25;;;;;;;1.88;1.23;;;;;;;;;;5013678;28;20022;-35
2021/06/24 11:47:15;;;;;;;3.00;1.30;;;;;;;;;;5014393;28;20101;-35
2021/06/24 12:03:50;;;;;;;2.85;1.90;;;;;;;;;;5013361;28;20385;-35
2021/06/24 12:06:17;;;;;;;2.95;2.03;;;;;;;;;;5013302;28;20088;-35
2021/06/24 12:08:44;;;;;;;4.30;2.10;;;;;;;;;;5013799;28;20033;-35
2021/06/24 12:11:12;;;;;;;3.10;1.92;;;;;;;;;;5012360;28;20524;-36
2021/06/24 12:13:43;;;;;;;2.45;1.75;;;;;;;;;;5013749;28;20029;-36
2021/06/24 12:16:14;;;;;;;4.55;1.90;;;;;;;;;;5012601;28;20437;-37
2021/06/24 12:18:42;;;;;;;3.42;1.70;;;;;;;;;;5012357;28;20049;-38
2021/06/24 12:21:10;;;;;;;3.90;1.70;;;;;;;;;;5009464;28;20030;-36
2021/06/24 12:23:45;;;;;;;4.57;1.80;;;;;;;;;;5002472;28;20024;-39
2021/06/24 12:26:13;;;;;;;2.88;1.85;;;;;;;;;;5012297;28;20021;-41
2021/06/24 12:28:41;;;;;;;2.25;1.75;;;;;;;;;;5011956;28;20113;-38
2021/06/24 12:31:17;;;;;;;5.10;1.80;;;;;;;;;;5009786;28;20028;-38
2021/06/24 12:33:47;;;;;;;3.47;1.70;;;;;;;;;;5003999;28;20044;-39
2021/06/24 12:36:15;;;;;;;3.30;1.80;;;;;;;;;;5012672;28;20516;-38
2021/06/24 12:38:45;;;;;;;2.60;1.35;;;;;;;;;;5012159;28;20466;-42
2021/06/24 12:41:14;;;;;;;2.83;1.70;;;;;;;;;;5008751;28;20025;-40
2021/06/24 12:43:41;;;;;;;3.05;1.90;;;;;;;;;;5009973;28;20033;-39
2021/06/24 12:46:09;;;;;;;3.28;1.83;;;;;;;;;;5019756;28;20029;-40
2021/06/24 12:48:37;;;;;;;2.72;1.58;;;;;;;;;;5021926;28;20389;-42
2021/06/24 12:51:16;;;;;;;3.38;1.30;;;;;;;;;;5003780;28;20030;-39
2021/06/24 12:53:45;;;;;;;3.30;1.70;;;;;;;;;;5001244;28;20049;-39
2021/06/24 12:56:27;;;;;;;3.03;1.60;;;;;;;;;;5007173;28;20038;-38
2021/06/24 12:58:55;;;;;;;4.80;1.30;;;;;;;;;;5011975;28;20131;-38
2021/06/24 13:01:23;;;;;;;3.00;1.50;;;;;;;;;;5012664;28;20504;-39
2021/06/24 13:03:51;;;;;;;4.25;1.83;;;;;;;;;;5012019;28;20654;-39
2021/06/24 13:06:23;;;;;;;3.90;1.80;;;;;;;;;;5010010;28;20033;-37
2021/06/24 13:08:53;;;;;;;1.55;1.20;;;;;;;;;;5012091;28;20096;-36
2021/06/24 13:11:21;;;;;;;2.40;1.50;;;;;;;;;;5011201;28;20389;-38
2021/06/24 13:14:02;;;;;;;2.42;1.10;;;;;;;;;;4994776;28;20030;-38
2021/06/24 13:16:44;;;;;;;4.60;1.85;;;;;;;;;;5002935;28;20030;-34
2021/06/24 13:19:24;;;;;;;4.50;1.30;;;;;;;;;;5001671;28;20076;-41
2021/06/24 13:21:54;;;;;;;3.58;1.70;;;;;;;;;;5006372;28;20038;-38
2021/06/24 13:24:21;;;;;;;5.78;1.40;;;;;;;;;;5012169;28;20481;-42
2021/06/24 13:26:49;;;;;;;4.15;1.45;;;;;;;;;;5001839;28;20026;-33
2021/06/24 13:29:23;;;;;;;6.30;1.80;;;;;;;;;;5011093;28;20381;-36
2021/06/24 13:31:51;;;;;;;7.72;1.75;;;;;;;;;;5011375;28;20025;-37
2021/06/24 13:34:19;;;;;;;5.80;1.70;;;;;;;;;;5009312;28;20026;-42
2021/06/24 13:36:46;;;;;;;4.47;1.70;;;;;;;;;;5000896;28;20038;-37
2021/06/24 13:39:25;;;;;;;6.90;1.60;;;;;;;;;;5008695;28;20025;-40
2021/06/24 13:41:55;;;;;;;6.68;1.55;;;;;;;;;;5006455;28;20378;-38
2021/06/24 13:44:23;;;;;;;8.40;1.95;;;;;;;;;;5007215;28;20030;-40
2021/06/24 13:46:51;;;;;;;3.70;1.33;;;;;;;;;;5008014;28;20046;-36
2021/06/24 13:49:19;;;;;;;7.32;1.55;;;;;;;;;;5008382;28;20045;-39
2021/06/24 13:51:48;;;;;;;6.78;1.80;;;;;;;;;;5007627;28;20029;-38
2021/06/24 13:54:16;;;;;;;6.50;1.80;;;;;;;;;;5010911;28;20057;-39
2021/06/24 13:56:43;;;;;;;13.48;2.63;;;;;;;;;;4993303;28;20049;-38
2021/06/24 13:59:11;;;;;;;5.50;2.75;;;;;;;;;;5004132;28;20488;-38
2021/06/24 14:01:38;;;;;;;6.30;3.25;;;;;;;;;;4994931;28;20061;-34
2021/06/24 14:04:05;;;;;;;9.88;3.58;;;;;;;;;;4994412;28;20022;-33
2021/06/24 14:06:38;;;;;;;9.90;3.53;;;;;;;;;;4993903;28;20497;-34
2021/06/24 14:09:06;;;;;;;10.50;3.65;;;;;;;;;;5007347;28;20402;-33
2021/06/24 14:11:33;;;;;;;9.57;3.70;;;;;;;;;;5004189;28;20029;-33
2021/06/24 14:14:02;;;;;;;10.43;2.95;;;;;;;;;;5001354;28;20409;-33
2021/06/24 14:16:29;;;;;;;7.18;2.75;;;;;;;;;;4999492;28;20049;-36
2021/06/24 14:18:56;;;;;;;8.75;3.13;;;;;;;;;;5002141;28;20554;-38
2021/06/24 14:21:24;;;;;;;15.07;4.43;;;;;;;;;;5003428;28;20014;-33
2021/06/24 14:23:54;;;;;;;5.50;3.08;;;;;;;;;;4994937;28;20117;-38
2021/06/24 14:26:22;;;;;;;10.45;3.50;;;;;;;;;;4996683;28;20135;-36
2021/06/24 14:28:49;;;;;;;8.80;3.28;;;;;;;;;;5000969;28;20045;-38
2021/06/24 14:31:16;;;;;;;9.57;3.33;;;;;;;;;;4991590;28;20027;-35
2021/06/24 14:33:44;;;;;;;5.15;2.38;;;;;;;;;;4991313;28;20029;-33
2021/06/24 14:36:12;;;;;;;4.18;2.20;;;;;;;;;;4992840;28;20125;-41
2021/06/24 14:38:39;;;;;;;4.68;2.30;;;;;;;;;;4983599;28;20104;-34
2021/06/24 14:41:06;;;;;;;9.65;2.30;;;;;;;;;;4995759;28;20023;-37
2021/06/24 14:43:34;;;;;;;8.48;2.58;;;;;;;;;;4994214;28;20033;-41
2021/06/24 14:46:04;;;;;;;5.95;2.55;;;;;;;;;;5000144;28;20027;-38
2021/06/24 14:48:32;;;;;;;6.93;2.00;;;;;;;;;;4997342;28;20058;-47
2021/06/24 14:50:59;;;;;;;6.72;2.08;;;;;;;;;;4993789;28;20026;-60
2021/06/24 14:53:26;;;;;;;4.35;2.20;;;;;;;;;;4996417;28;20105;-56
2021/06/24 14:55:53;;;;;;;4.25;2.00;;;;;;;;;;4992683;28;20109;-50
2021/06/24 14:58:24;;;;;;;7.95;2.00;;;;;;;;;;4996535;28;20054;-41
2021/06/24 15:00:51;;;;;;;6.72;2.00;;;;;;;;;;4993885;28;20045;-41
2021/06/24 15:03:18;;;;;;;6.53;2.17;;;;;;;;;;4995161;28;20041;-47
2021/06/24 15:05:45;;;;;;;8.63;2.40;;;;;;;;;;4994345;28;20026;-35